sensor_id;sensor_type;location;lat;lon;timestamp;temperature;humidity
36424;DHT22;22458;45.328;9.514;2023-04-08T00:01:03;11.90;71.40
36424;DHT22;22458;45.328;9.514;2023-04-08T00:03:29;11.80;71.50
36424;DHT22;22458;45.328;9.514;2023-04-08T00:05:55;11.80;71.60
36424;DHT22;22458;45.328;9.514;2023-04-08T00:08:20;11.80;71.70
36424;DHT22;22458;45.328;9.514;2023-04-08T00:10:46;11.80;71.80
36424;DHT22;22458;45.328;9.514;2023-04-08T00:13:12;11.90;71.90
36424;DHT22;22458;45.328;9.514;2023-04-08T00:15:40;11.90;71.90
36424;DHT22;22458;45.328;9.514;2023-04-08T00:18:06;11.80;71.90
36424;DHT22;22458;45.328;9.514;2023-04-08T00:20:32;11.80;72.10
36424;DHT22;22458;45.328;9.514;2023-04-08T00:22:58;11.80;72.20
36424;DHT22;22458;45.328;9.514;2023-04-08T00:25:24;11.70;72.30
36424;DHT22;22458;45.328;9.514;2023-04-08T00:27:50;11.70;72.30
36424;DHT22;22458;45.328;9.514;2023-04-08T00:30:15;11.70;72.40
36424;DHT22;22458;45.328;9.514;2023-04-08T00:32:43;11.70;72.70
36424;DHT22;22458;45.328;9.514;2023-04-08T00:35:09;11.60;72.80
36424;DHT22;22458;45.328;9.514;2023-04-08T00:37:37;11.60;73.10
36424;DHT22;22458;45.328;9.514;2023-04-08T00:40:03;11.60;73.30
36424;DHT22;22458;45.328;9.514;2023-04-08T00:42:30;11.60;73.20
36424;DHT22;22458;45.328;9.514;2023-04-08T00:44:56;11.60;73.30
36424;DHT22;22458;45.328;9.514;2023-04-08T00:47:22;11.50;73.40
36424;DHT22;22458;45.328;9.514;2023-04-08T00:49:48;11.40;73.60
36424;DHT22;22458;45.328;9.514;2023-04-08T00:52:14;11.30;74.00
36424;DHT22;22458;45.328;9.514;2023-04-08T00:54:40;11.30;74.30
36424;DHT22;22458;45.328;9.514;2023-04-08T00:57:07;11.20;74.70
36424;DHT22;22458;45.328;9.514;2023-04-08T00:59:33;11.00;75.50
36424;DHT22;22458;45.328;9.514;2023-04-08T01:07:30;10.30;77.30
36424;DHT22;22458;45.328;9.514;2023-04-08T01:10:02;10.10;78.00
36424;DHT22;22458;45.328;9.514;2023-04-08T01:12:32;10.00;78.50
36424;DHT22;22458;45.328;9.514;2023-04-08T01:15:06;9.90;79.00
36424;DHT22;22458;45.328;9.514;2023-04-08T01:17:34;9.90;79.20
36424;DHT22;22458;45.328;9.514;2023-04-08T01:20:02;9.90;79.30
36424;DHT22;22458;45.328;9.514;2023-04-08T01:25:30;9.90;79.80
36424;DHT22;22458;45.328;9.514;2023-04-08T01:28:02;9.90;80.00
36424;DHT22;22458;45.328;9.514;2023-04-08T01:30:30;10.00;79.70
36424;DHT22;22458;45.328;9.514;2023-04-08T01:32:58;10.10;79.50
36424;DHT22;22458;45.328;9.514;2023-04-08T01:35:24;10.20;79.40
36424;DHT22;22458;45.328;9.514;2023-04-08T01:37:51;10.20;79.30
36424;DHT22;22458;45.328;9.514;2023-04-08T01:40:18;10.20;79.40
36424;DHT22;22458;45.328;9.514;2023-04-08T01:42:47;10.30;79.50
36424;DHT22;22458;45.328;9.514;2023-04-08T01:45:14;10.30;79.50
36424;DHT22;22458;45.328;9.514;2023-04-08T01:47:41;10.30;79.30
36424;DHT22;22458;45.328;9.514;2023-04-08T01:50:11;10.40;79.30
36424;DHT22;22458;45.328;9.514;2023-04-08T01:52:39;10.50;79.20
36424;DHT22;22458;45.328;9.514;2023-04-08T01:55:06;10.70;79.10
36424;DHT22;22458;45.328;9.514;2023-04-08T01:57:34;10.80;79.00
36424;DHT22;22458;45.328;9.514;2023-04-08T02:00:06;10.80;78.70
36424;DHT22;22458;45.328;9.514;2023-04-08T02:02:45;10.80;78.50
36424;DHT22;22458;45.328;9.514;2023-04-08T02:05:13;10.80;78.60
36424;DHT22;22458;45.328;9.514;2023-04-08T02:07:38;10.80;78.80
36424;DHT22;22458;45.328;9.514;2023-04-08T02:10:05;10.80;78.90
36424;DHT22;22458;45.328;9.514;2023-04-08T02:12:32;10.90;79.10
36424;DHT22;22458;45.328;9.514;2023-04-08T02:14:58;10.90;79.10
36424;DHT22;22458;45.328;9.514;2023-04-08T02:17:34;11.00;79.10
36424;DHT22;22458;45.328;9.514;2023-04-08T02:20:06;11.00;79.10
36424;DHT22;22458;45.328;9.514;2023-04-08T02:22:44;11.00;79.10
36424;DHT22;22458;45.328;9.514;2023-04-08T02:25:16;11.10;79.10
36424;DHT22;22458;45.328;9.514;2023-04-08T02:27:45;11.20;79.10
36424;DHT22;22458;45.328;9.514;2023-04-08T02:30:14;11.10;78.90
36424;DHT22;22458;45.328;9.514;2023-04-08T02:32:41;11.10;79.10
36424;DHT22;22458;45.328;9.514;2023-04-08T02:35:08;11.00;79.40
36424;DHT22;22458;45.328;9.514;2023-04-08T02:37:37;11.00;79.40
36424;DHT22;22458;45.328;9.514;2023-04-08T02:40:03;11.00;79.40
36424;DHT22;22458;45.328;9.514;2023-04-08T02:42:28;11.10;79.60
36424;DHT22;22458;45.328;9.514;2023-04-08T02:44:55;11.20;79.50
36424;DHT22;22458;45.328;9.514;2023-04-08T02:47:21;11.20;79.60
36424;DHT22;22458;45.328;9.514;2023-04-08T02:49:47;11.20;79.70
36424;DHT22;22458;45.328;9.514;2023-04-08T02:52:13;11.20;79.90
36424;DHT22;22458;45.328;9.514;2023-04-08T02:54:39;11.20;80.10
36424;DHT22;22458;45.328;9.514;2023-04-08T02:57:04;11.20;80.30
36424;DHT22;22458;45.328;9.514;2023-04-08T02:59:30;11.30;80.30
36424;DHT22;22458;45.328;9.514;2023-04-08T03:01:56;11.20;80.50
36424;DHT22;22458;45.328;9.514;2023-04-08T03:04:21;11.20;80.90
36424;DHT22;22458;45.328;9.514;2023-04-08T03:06:47;11.20;81.10
36424;DHT22;22458;45.328;9.514;2023-04-08T03:09:13;11.10;81.40
36424;DHT22;22458;45.328;9.514;2023-04-08T03:11:39;11.10;81.80
36424;DHT22;22458;45.328;9.514;2023-04-08T03:14:05;11.00;82.20
36424;DHT22;22458;45.328;9.514;2023-04-08T03:16:30;10.90;82.40
36424;DHT22;22458;45.328;9.514;2023-04-08T03:18:56;10.90;82.40
36424;DHT22;22458;45.328;9.514;2023-04-08T03:21:22;10.70;82.80
36424;DHT22;22458;45.328;9.514;2023-04-08T03:23:47;10.60;83.30
36424;DHT22;22458;45.328;9.514;2023-04-08T03:26:13;10.50;83.50
36424;DHT22;22458;45.328;9.514;2023-04-08T03:28:39;10.50;83.70
36424;DHT22;22458;45.328;9.514;2023-04-08T03:31:05;10.50;84.40
36424;DHT22;22458;45.328;9.514;2023-04-08T03:33:31;10.50;84.00
36424;DHT22;22458;45.328;9.514;2023-04-08T03:35:57;10.60;84.00
36424;DHT22;22458;45.328;9.514;2023-04-08T03:38:22;10.50;83.80
36424;DHT22;22458;45.328;9.514;2023-04-08T03:40:48;10.40;84.00
36424;DHT22;22458;45.328;9.514;2023-04-08T03:43:14;10.50;84.30
36424;DHT22;22458;45.328;9.514;2023-04-08T03:45:40;10.50;84.30
36424;DHT22;22458;45.328;9.514;2023-04-08T03:48:06;10.40;84.20
36424;DHT22;22458;45.328;9.514;2023-04-08T03:50:32;10.40;84.20
36424;DHT22;22458;45.328;9.514;2023-04-08T03:52:57;10.40;84.30
36424;DHT22;22458;45.328;9.514;2023-04-08T03:55:23;10.40;84.30
36424;DHT22;22458;45.328;9.514;2023-04-08T03:57:49;10.30;84.30
36424;DHT22;22458;45.328;9.514;2023-04-08T04:00:15;10.20;84.50
36424;DHT22;22458;45.328;9.514;2023-04-08T04:02:43;10.10;84.60
36424;DHT22;22458;45.328;9.514;2023-04-08T04:05:09;10.00;84.80
36424;DHT22;22458;45.328;9.514;2023-04-08T04:07:35;9.80;85.50
36424;DHT22;22458;45.328;9.514;2023-04-08T04:10:01;9.70;85.70
36424;DHT22;22458;45.328;9.514;2023-04-08T04:12:27;9.60;86.20
36424;DHT22;22458;45.328;9.514;2023-04-08T04:14:52;9.70;86.30
36424;DHT22;22458;45.328;9.514;2023-04-08T04:17:18;9.80;86.90
36424;DHT22;22458;45.328;9.514;2023-04-08T04:19:44;9.90;86.30
36424;DHT22;22458;45.328;9.514;2023-04-08T04:22:10;10.00;86.10
36424;DHT22;22458;45.328;9.514;2023-04-08T04:24:36;10.00;85.90
36424;DHT22;22458;45.328;9.514;2023-04-08T04:27:01;10.10;85.80
36424;DHT22;22458;45.328;9.514;2023-04-08T04:29:27;10.10;85.70
36424;DHT22;22458;45.328;9.514;2023-04-08T04:31:55;10.20;85.70
36424;DHT22;22458;45.328;9.514;2023-04-08T04:34:21;10.30;85.60
36424;DHT22;22458;45.328;9.514;2023-04-08T04:36:46;10.30;85.50
36424;DHT22;22458;45.328;9.514;2023-04-08T04:39:12;10.30;85.40
36424;DHT22;22458;45.328;9.514;2023-04-08T04:41:38;10.30;85.50
36424;DHT22;22458;45.328;9.514;2023-04-08T04:44:05;10.30;85.50
36424;DHT22;22458;45.328;9.514;2023-04-08T04:46:31;10.30;85.60
36424;DHT22;22458;45.328;9.514;2023-04-08T04:48:57;10.40;85.70
36424;DHT22;22458;45.328;9.514;2023-04-08T04:51:22;10.40;85.70
36424;DHT22;22458;45.328;9.514;2023-04-08T04:53:48;10.50;85.80
36424;DHT22;22458;45.328;9.514;2023-04-08T04:56:14;10.50;85.80
36424;DHT22;22458;45.328;9.514;2023-04-08T04:58:40;10.50;85.90
36424;DHT22;22458;45.328;9.514;2023-04-08T05:01:06;10.50;86.10
36424;DHT22;22458;45.328;9.514;2023-04-08T05:03:32;10.60;86.20
36424;DHT22;22458;45.328;9.514;2023-04-08T05:05:58;10.60;86.20
36424;DHT22;22458;45.328;9.514;2023-04-08T05:08:24;10.60;86.30
36424;DHT22;22458;45.328;9.514;2023-04-08T05:10:49;10.60;86.50
36424;DHT22;22458;45.328;9.514;2023-04-08T05:13:16;10.60;86.60
36424;DHT22;22458;45.328;9.514;2023-04-08T05:15:42;10.60;86.70
36424;DHT22;22458;45.328;9.514;2023-04-08T05:18:10;10.50;86.90
36424;DHT22;22458;45.328;9.514;2023-04-08T05:20:35;10.50;87.30
36424;DHT22;22458;45.328;9.514;2023-04-08T05:23:01;10.50;87.60
36424;DHT22;22458;45.328;9.514;2023-04-08T05:25:28;10.50;87.60
36424;DHT22;22458;45.328;9.514;2023-04-08T05:27:54;10.50;87.80
36424;DHT22;22458;45.328;9.514;2023-04-08T05:30:20;10.50;87.90
36424;DHT22;22458;45.328;9.514;2023-04-08T05:32:46;10.50;88.10
36424;DHT22;22458;45.328;9.514;2023-04-08T05:35:12;10.40;88.30
36424;DHT22;22458;45.328;9.514;2023-04-08T05:37:38;10.50;88.40
36424;DHT22;22458;45.328;9.514;2023-04-08T05:40:04;10.50;88.30
36424;DHT22;22458;45.328;9.514;2023-04-08T05:42:31;10.50;88.20
36424;DHT22;22458;45.328;9.514;2023-04-08T05:44:57;10.70;88.20
36424;DHT22;22458;45.328;9.514;2023-04-08T05:47:23;10.70;88.10
36424;DHT22;22458;45.328;9.514;2023-04-08T05:49:49;10.60;88.20
36424;DHT22;22458;45.328;9.514;2023-04-08T05:52:14;10.50;88.60
36424;DHT22;22458;45.328;9.514;2023-04-08T05:54:44;10.40;89.10
36424;DHT22;22458;45.328;9.514;2023-04-08T05:57:10;10.30;89.60
36424;DHT22;22458;45.328;9.514;2023-04-08T05:59:36;10.30;89.60
36424;DHT22;22458;45.328;9.514;2023-04-08T06:02:02;10.40;89.70
36424;DHT22;22458;45.328;9.514;2023-04-08T06:04:27;10.40;89.50
36424;DHT22;22458;45.328;9.514;2023-04-08T06:06:53;10.40;89.70
36424;DHT22;22458;45.328;9.514;2023-04-08T06:09:19;10.40;89.80
36424;DHT22;22458;45.328;9.514;2023-04-08T06:11:45;10.40;90.00
36424;DHT22;22458;45.328;9.514;2023-04-08T06:14:11;10.40;90.00
36424;DHT22;22458;45.328;9.514;2023-04-08T06:16:37;10.50;90.10
36424;DHT22;22458;45.328;9.514;2023-04-08T06:19:03;10.60;90.00
36424;DHT22;22458;45.328;9.514;2023-04-08T06:21:29;10.60;90.00
36424;DHT22;22458;45.328;9.514;2023-04-08T06:23:54;10.60;90.10
36424;DHT22;22458;45.328;9.514;2023-04-08T06:26:20;10.50;90.30
36424;DHT22;22458;45.328;9.514;2023-04-08T06:28:46;10.50;90.30
36424;DHT22;22458;45.328;9.514;2023-04-08T06:31:11;10.60;90.30
36424;DHT22;22458;45.328;9.514;2023-04-08T06:33:37;10.60;90.30
36424;DHT22;22458;45.328;9.514;2023-04-08T06:36:06;10.60;90.40
36424;DHT22;22458;45.328;9.514;2023-04-08T06:38:32;10.70;90.50
36424;DHT22;22458;45.328;9.514;2023-04-08T06:41:05;10.80;90.50
36424;DHT22;22458;45.328;9.514;2023-04-08T06:43:32;10.90;90.50
36424;DHT22;22458;45.328;9.514;2023-04-08T06:45:58;10.90;90.60
36424;DHT22;22458;45.328;9.514;2023-04-08T06:48:24;11.00;90.60
36424;DHT22;22458;45.328;9.514;2023-04-08T06:50:56;11.00;90.50
36424;DHT22;22458;45.328;9.514;2023-04-08T06:53:23;11.10;90.50
36424;DHT22;22458;45.328;9.514;2023-04-08T06:55:49;11.20;90.40
36424;DHT22;22458;45.328;9.514;2023-04-08T06:58:15;11.10;90.50
36424;DHT22;22458;45.328;9.514;2023-04-08T07:00:43;11.10;90.60
36424;DHT22;22458;45.328;9.514;2023-04-08T07:03:09;11.10;90.70
36424;DHT22;22458;45.328;9.514;2023-04-08T07:05:38;11.10;90.80
36424;DHT22;22458;45.328;9.514;2023-04-08T07:08:04;11.20;90.80
36424;DHT22;22458;45.328;9.514;2023-04-08T07:10:31;11.30;90.70
36424;DHT22;22458;45.328;9.514;2023-04-08T07:13:00;11.40;90.60
36424;DHT22;22458;45.328;9.514;2023-04-08T07:15:26;11.60;90.70
36424;DHT22;22458;45.328;9.514;2023-04-08T07:17:52;11.80;90.30
36424;DHT22;22458;45.328;9.514;2023-04-08T07:20:17;11.90;90.10
36424;DHT22;22458;45.328;9.514;2023-04-08T07:22:43;12.00;89.90
36424;DHT22;22458;45.328;9.514;2023-04-08T07:25:09;12.10;89.60
36424;DHT22;22458;45.328;9.514;2023-04-08T07:27:34;12.20;89.40
36424;DHT22;22458;45.328;9.514;2023-04-08T07:30:01;12.30;89.80
36424;DHT22;22458;45.328;9.514;2023-04-08T07:32:27;12.30;88.90
36424;DHT22;22458;45.328;9.514;2023-04-08T07:34:53;12.40;88.70
36424;DHT22;22458;45.328;9.514;2023-04-08T07:37:19;12.50;88.40
36424;DHT22;22458;45.328;9.514;2023-04-08T07:39:44;12.60;88.10
36424;DHT22;22458;45.328;9.514;2023-04-08T07:42:10;12.70;87.70
36424;DHT22;22458;45.328;9.514;2023-04-08T07:44:36;12.70;87.60
36424;DHT22;22458;45.328;9.514;2023-04-08T07:47:03;12.70;87.20
36424;DHT22;22458;45.328;9.514;2023-04-08T07:49:29;12.80;87.00
36424;DHT22;22458;45.328;9.514;2023-04-08T07:51:54;12.90;86.80
36424;DHT22;22458;45.328;9.514;2023-04-08T07:54:20;12.90;86.40
36424;DHT22;22458;45.328;9.514;2023-04-08T07:56:46;13.10;86.60
36424;DHT22;22458;45.328;9.514;2023-04-08T07:59:11;13.20;85.80
36424;DHT22;22458;45.328;9.514;2023-04-08T08:01:37;13.40;85.40
36424;DHT22;22458;45.328;9.514;2023-04-08T08:04:03;13.50;85.00
36424;DHT22;22458;45.328;9.514;2023-04-08T08:06:30;13.60;84.50
36424;DHT22;22458;45.328;9.514;2023-04-08T08:08:57;13.60;84.20
36424;DHT22;22458;45.328;9.514;2023-04-08T08:11:23;13.60;84.00
36424;DHT22;22458;45.328;9.514;2023-04-08T08:13:48;13.80;83.80
36424;DHT22;22458;45.328;9.514;2023-04-08T08:16:14;14.00;83.60
36424;DHT22;22458;45.328;9.514;2023-04-08T08:18:40;14.10;83.10
36424;DHT22;22458;45.328;9.514;2023-04-08T08:21:06;14.20;82.80
36424;DHT22;22458;45.328;9.514;2023-04-08T08:23:32;14.30;82.40
36424;DHT22;22458;45.328;9.514;2023-04-08T08:26:03;14.40;82.10
36424;DHT22;22458;45.328;9.514;2023-04-08T08:28:29;14.60;81.80
36424;DHT22;22458;45.328;9.514;2023-04-08T08:30:55;14.70;81.30
36424;DHT22;22458;45.328;9.514;2023-04-08T08:33:21;14.80;80.80
36424;DHT22;22458;45.328;9.514;2023-04-08T08:35:46;14.90;80.40
36424;DHT22;22458;45.328;9.514;2023-04-08T08:38:12;15.10;80.10
36424;DHT22;22458;45.328;9.514;2023-04-08T08:40:38;15.10;79.40
36424;DHT22;22458;45.328;9.514;2023-04-08T08:43:04;15.20;79.20
36424;DHT22;22458;45.328;9.514;2023-04-08T08:45:30;15.20;78.50
36424;DHT22;22458;45.328;9.514;2023-04-08T08:47:57;15.20;78.40
36424;DHT22;22458;45.328;9.514;2023-04-08T08:50:23;15.40;77.80
36424;DHT22;22458;45.328;9.514;2023-04-08T08:52:50;15.30;77.50
36424;DHT22;22458;45.328;9.514;2023-04-08T08:55:19;15.20;77.20
36424;DHT22;22458;45.328;9.514;2023-04-08T08:57:45;15.30;77.10
36424;DHT22;22458;45.328;9.514;2023-04-08T09:00:15;15.40;77.10
36424;DHT22;22458;45.328;9.514;2023-04-08T09:02:41;15.40;76.60
36424;DHT22;22458;45.328;9.514;2023-04-08T09:05:07;15.40;76.30
36424;DHT22;22458;45.328;9.514;2023-04-08T09:07:37;15.60;76.10
36424;DHT22;22458;45.328;9.514;2023-04-08T09:10:06;15.60;75.80
36424;DHT22;22458;45.328;9.514;2023-04-08T09:12:32;15.70;75.90
36424;DHT22;22458;45.328;9.514;2023-04-08T09:15:05;15.80;75.70
36424;DHT22;22458;45.328;9.514;2023-04-08T09:17:37;16.10;75.10
36424;DHT22;22458;45.328;9.514;2023-04-08T09:20:04;16.20;74.70
36424;DHT22;22458;45.328;9.514;2023-04-08T09:22:47;16.40;74.30
36424;DHT22;22458;45.328;9.514;2023-04-08T09:25:37;16.50;73.60
36424;DHT22;22458;45.328;9.514;2023-04-08T09:28:03;16.70;72.70
36424;DHT22;22458;45.328;9.514;2023-04-08T09:30:31;16.80;72.40
36424;DHT22;22458;45.328;9.514;2023-04-08T09:32:57;16.90;71.40
36424;DHT22;22458;45.328;9.514;2023-04-08T09:35:24;17.00;71.20
36424;DHT22;22458;45.328;9.514;2023-04-08T09:37:50;17.10;70.90
36424;DHT22;22458;45.328;9.514;2023-04-08T09:40:16;17.30;70.50
36424;DHT22;22458;45.328;9.514;2023-04-08T09:42:47;17.40;69.80
36424;DHT22;22458;45.328;9.514;2023-04-08T09:45:16;17.50;69.30
36424;DHT22;22458;45.328;9.514;2023-04-08T09:47:56;17.60;69.10
36424;DHT22;22458;45.328;9.514;2023-04-08T09:50:28;17.60;68.00
36424;DHT22;22458;45.328;9.514;2023-04-08T09:53:00;17.70;67.90
36424;DHT22;22458;45.328;9.514;2023-04-08T09:55:29;17.60;66.90
36424;DHT22;22458;45.328;9.514;2023-04-08T09:58:04;17.50;66.60
36424;DHT22;22458;45.328;9.514;2023-04-08T10:00:36;17.50;66.80
36424;DHT22;22458;45.328;9.514;2023-04-08T10:03:29;17.60;66.60
36424;DHT22;22458;45.328;9.514;2023-04-08T10:06:00;17.90;66.20
36424;DHT22;22458;45.328;9.514;2023-04-08T10:08:26;18.20;66.00
36424;DHT22;22458;45.328;9.514;2023-04-08T10:10:53;18.30;65.30
36424;DHT22;22458;45.328;9.514;2023-04-08T10:13:19;18.30;65.10
36424;DHT22;22458;45.328;9.514;2023-04-08T10:15:45;18.40;64.80
36424;DHT22;22458;45.328;9.514;2023-04-08T10:20:46;18.60;64.70
36424;DHT22;22458;45.328;9.514;2023-04-08T10:23:13;18.90;63.60
36424;DHT22;22458;45.328;9.514;2023-04-08T10:30:46;20.60;60.90
36424;DHT22;22458;45.328;9.514;2023-04-08T10:33:24;21.10;58.90
36424;DHT22;22458;45.328;9.514;2023-04-08T10:36:11;21.30;57.40
36424;DHT22;22458;45.328;9.514;2023-04-08T10:38:38;21.30;56.70
36424;DHT22;22458;45.328;9.514;2023-04-08T10:41:04;21.30;56.70
36424;DHT22;22458;45.328;9.514;2023-04-08T10:43:34;21.30;56.20
36424;DHT22;22458;45.328;9.514;2023-04-08T10:46:03;21.40;55.80
36424;DHT22;22458;45.328;9.514;2023-04-08T10:48:29;21.30;55.20
36424;DHT22;22458;45.328;9.514;2023-04-08T10:51:02;21.00;55.40
36424;DHT22;22458;45.328;9.514;2023-04-08T10:53:35;20.70;54.70
36424;DHT22;22458;45.328;9.514;2023-04-08T10:56:14;20.70;54.30
36424;DHT22;22458;45.328;9.514;2023-04-08T10:58:51;20.70;53.60
36424;DHT22;22458;45.328;9.514;2023-04-08T11:01:18;20.80;52.90
36424;DHT22;22458;45.328;9.514;2023-04-08T11:03:44;20.80;52.90
36424;DHT22;22458;45.328;9.514;2023-04-08T11:06:10;20.80;52.90
36424;DHT22;22458;45.328;9.514;2023-04-08T11:08:37;20.70;52.60
36424;DHT22;22458;45.328;9.514;2023-04-08T11:11:06;20.70;52.80
36424;DHT22;22458;45.328;9.514;2023-04-08T11:13:40;20.90;52.90
36424;DHT22;22458;45.328;9.514;2023-04-08T11:16:07;21.30;52.10
36424;DHT22;22458;45.328;9.514;2023-04-08T11:18:34;21.70;51.60
36424;DHT22;22458;45.328;9.514;2023-04-08T11:21:04;22.40;50.60
36424;DHT22;22458;45.328;9.514;2023-04-08T11:23:32;22.70;49.70
36424;DHT22;22458;45.328;9.514;2023-04-08T11:25:58;23.00;49.40
36424;DHT22;22458;45.328;9.514;2023-04-08T11:28:25;23.40;49.00
36424;DHT22;22458;45.328;9.514;2023-04-08T11:30:51;23.90;48.10
36424;DHT22;22458;45.328;9.514;2023-04-08T11:33:18;24.30;47.40
36424;DHT22;22458;45.328;9.514;2023-04-08T11:35:44;24.50;46.80
36424;DHT22;22458;45.328;9.514;2023-04-08T11:38:10;24.20;46.70
36424;DHT22;22458;45.328;9.514;2023-04-08T11:40:37;24.40;46.80
36424;DHT22;22458;45.328;9.514;2023-04-08T11:43:10;24.50;47.10
36424;DHT22;22458;45.328;9.514;2023-04-08T11:45:40;24.80;45.80
36424;DHT22;22458;45.328;9.514;2023-04-08T11:48:13;24.90;45.30
36424;DHT22;22458;45.328;9.514;2023-04-08T11:50:40;24.70;45.30
36424;DHT22;22458;45.328;9.514;2023-04-08T11:55:44;24.10;44.70
36424;DHT22;22458;45.328;9.514;2023-04-08T11:58:10;23.80;45.10
36424;DHT22;22458;45.328;9.514;2023-04-08T12:00:35;23.60;45.00
36424;DHT22;22458;45.328;9.514;2023-04-08T12:03:01;23.40;44.90
36424;DHT22;22458;45.328;9.514;2023-04-08T12:05:27;23.30;44.60
36424;DHT22;22458;45.328;9.514;2023-04-08T12:07:53;23.10;44.20
36424;DHT22;22458;45.328;9.514;2023-04-08T12:10:19;23.00;44.40
36424;DHT22;22458;45.328;9.514;2023-04-08T12:12:45;22.70;44.30
36424;DHT22;22458;45.328;9.514;2023-04-08T12:15:10;22.70;44.60
36424;DHT22;22458;45.328;9.514;2023-04-08T12:17:36;22.60;44.60
36424;DHT22;22458;45.328;9.514;2023-04-08T12:20:05;22.60;44.70
36424;DHT22;22458;45.328;9.514;2023-04-08T12:22:32;22.60;44.60
36424;DHT22;22458;45.328;9.514;2023-04-08T12:24:57;22.60;44.40
36424;DHT22;22458;45.328;9.514;2023-04-08T12:27:23;22.50;44.60
36424;DHT22;22458;45.328;9.514;2023-04-08T12:29:49;22.50;44.60
36424;DHT22;22458;45.328;9.514;2023-04-08T12:32:16;22.40;44.50
36424;DHT22;22458;45.328;9.514;2023-04-08T12:34:42;22.50;44.60
36424;DHT22;22458;45.328;9.514;2023-04-08T12:37:07;22.70;44.40
36424;DHT22;22458;45.328;9.514;2023-04-08T12:39:34;22.70;44.50
36424;DHT22;22458;45.328;9.514;2023-04-08T12:42:00;22.70;44.50
36424;DHT22;22458;45.328;9.514;2023-04-08T12:44:26;22.70;44.40
36424;DHT22;22458;45.328;9.514;2023-04-08T12:46:51;22.60;44.60
36424;DHT22;22458;45.328;9.514;2023-04-08T12:49:17;22.50;44.50
36424;DHT22;22458;45.328;9.514;2023-04-08T12:51:46;22.50;44.30
36424;DHT22;22458;45.328;9.514;2023-04-08T12:54:11;22.50;44.40
36424;DHT22;22458;45.328;9.514;2023-04-08T12:56:37;22.50;44.50
36424;DHT22;22458;45.328;9.514;2023-04-08T12:59:03;22.70;44.40
36424;DHT22;22458;45.328;9.514;2023-04-08T13:01:29;22.70;44.30
36424;DHT22;22458;45.328;9.514;2023-04-08T13:03:55;22.70;44.20
36424;DHT22;22458;45.328;9.514;2023-04-08T13:06:23;22.80;44.00
36424;DHT22;22458;45.328;9.514;2023-04-08T13:08:49;22.90;43.70
36424;DHT22;22458;45.328;9.514;2023-04-08T13:11:14;22.80;43.90
36424;DHT22;22458;45.328;9.514;2023-04-08T13:13:40;22.90;43.60
36424;DHT22;22458;45.328;9.514;2023-04-08T13:16:06;23.00;43.80
36424;DHT22;22458;45.328;9.514;2023-04-08T13:18:32;23.10;42.80
36424;DHT22;22458;45.328;9.514;2023-04-08T13:20:57;23.30;42.30
36424;DHT22;22458;45.328;9.514;2023-04-08T13:23:23;23.40;42.00
36424;DHT22;22458;45.328;9.514;2023-04-08T13:25:49;23.40;41.80
36424;DHT22;22458;45.328;9.514;2023-04-08T13:28:15;23.50;41.70
36424;DHT22;22458;45.328;9.514;2023-04-08T13:30:42;23.50;41.60
36424;DHT22;22458;45.328;9.514;2023-04-08T13:33:07;23.40;40.90
36424;DHT22;22458;45.328;9.514;2023-04-08T13:35:33;23.30;41.30
36424;DHT22;22458;45.328;9.514;2023-04-08T13:37:59;23.10;40.70
36424;DHT22;22458;45.328;9.514;2023-04-08T13:40:24;22.80;40.90
36424;DHT22;22458;45.328;9.514;2023-04-08T13:42:51;22.90;41.20
36424;DHT22;22458;45.328;9.514;2023-04-08T13:45:17;23.00;41.20
36424;DHT22;22458;45.328;9.514;2023-04-08T13:47:43;23.00;41.50
36424;DHT22;22458;45.328;9.514;2023-04-08T13:50:09;23.10;41.70
36424;DHT22;22458;45.328;9.514;2023-04-08T13:52:35;23.30;41.70
36424;DHT22;22458;45.328;9.514;2023-04-08T13:55:01;23.40;41.90
36424;DHT22;22458;45.328;9.514;2023-04-08T13:57:27;23.50;41.00
36424;DHT22;22458;45.328;9.514;2023-04-08T13:59:53;23.50;40.90
36424;DHT22;22458;45.328;9.514;2023-04-08T14:02:18;23.50;40.80
36424;DHT22;22458;45.328;9.514;2023-04-08T14:04:44;23.60;40.60
36424;DHT22;22458;45.328;9.514;2023-04-08T14:07:13;24.00;40.10
36424;DHT22;22458;45.328;9.514;2023-04-08T14:09:39;24.90;39.20
36424;DHT22;22458;45.328;9.514;2023-04-08T14:12:05;25.90;37.90
36424;DHT22;22458;45.328;9.514;2023-04-08T14:14:30;27.10;37.10
36424;DHT22;22458;45.328;9.514;2023-04-08T14:16:56;28.20;36.30
36424;DHT22;22458;45.328;9.514;2023-04-08T14:19:22;29.20;35.60
36424;DHT22;22458;45.328;9.514;2023-04-08T14:21:48;29.90;35.00
36424;DHT22;22458;45.328;9.514;2023-04-08T14:24:14;30.40;34.50
36424;DHT22;22458;45.328;9.514;2023-04-08T14:26:40;30.60;34.30
36424;DHT22;22458;45.328;9.514;2023-04-08T14:29:06;30.80;34.10
36424;DHT22;22458;45.328;9.514;2023-04-08T14:31:33;31.20;33.90
36424;DHT22;22458;45.328;9.514;2023-04-08T14:33:59;31.60;33.40
36424;DHT22;22458;45.328;9.514;2023-04-08T14:36:26;31.90;33.00
36424;DHT22;22458;45.328;9.514;2023-04-08T14:38:52;32.20;32.70
36424;DHT22;22458;45.328;9.514;2023-04-08T14:41:18;32.30;32.20
36424;DHT22;22458;45.328;9.514;2023-04-08T14:43:44;32.30;32.00
36424;DHT22;22458;45.328;9.514;2023-04-08T14:46:10;32.00;31.80
36424;DHT22;22458;45.328;9.514;2023-04-08T14:48:36;31.50;31.90
36424;DHT22;22458;45.328;9.514;2023-04-08T14:51:01;30.90;32.20
36424;DHT22;22458;45.328;9.514;2023-04-08T14:53:27;30.50;32.30
36424;DHT22;22458;45.328;9.514;2023-04-08T14:55:53;30.10;32.30
36424;DHT22;22458;45.328;9.514;2023-04-08T14:58:18;30.10;32.20
36424;DHT22;22458;45.328;9.514;2023-04-08T15:00:45;30.60;32.10
36424;DHT22;22458;45.328;9.514;2023-04-08T15:03:15;31.00;31.60
36424;DHT22;22458;45.328;9.514;2023-04-08T15:05:54;31.40;31.00
36424;DHT22;22458;45.328;9.514;2023-04-08T15:08:20;31.70;31.00
36424;DHT22;22458;45.328;9.514;2023-04-08T15:10:46;32.00;30.70
36424;DHT22;22458;45.328;9.514;2023-04-08T15:13:12;32.00;30.40
36424;DHT22;22458;45.328;9.514;2023-04-08T15:15:37;32.20;30.80
36424;DHT22;22458;45.328;9.514;2023-04-08T15:18:03;32.60;30.00
36424;DHT22;22458;45.328;9.514;2023-04-08T15:20:29;33.00;29.70
36424;DHT22;22458;45.328;9.514;2023-04-08T15:22:55;33.30;29.50
36424;DHT22;22458;45.328;9.514;2023-04-08T15:25:20;33.40;29.40
36424;DHT22;22458;45.328;9.514;2023-04-08T15:27:46;33.50;29.30
36424;DHT22;22458;45.328;9.514;2023-04-08T15:30:13;33.20;28.90
36424;DHT22;22458;45.328;9.514;2023-04-08T15:32:39;32.70;28.90
36424;DHT22;22458;45.328;9.514;2023-04-08T15:35:06;32.00;29.10
36424;DHT22;22458;45.328;9.514;2023-04-08T15:37:32;31.50;29.20
36424;DHT22;22458;45.328;9.514;2023-04-08T15:39:58;31.10;29.40
36424;DHT22;22458;45.328;9.514;2023-04-08T15:42:24;30.90;29.60
36424;DHT22;22458;45.328;9.514;2023-04-08T15:44:49;31.20;29.50
36424;DHT22;22458;45.328;9.514;2023-04-08T15:47:16;31.50;29.40
36424;DHT22;22458;45.328;9.514;2023-04-08T15:49:41;31.90;29.20